createdAt,value
2023-01-09T00:00:47.458Z,81.96
2023-01-09T00:03:14.384Z,83.05
2023-01-09T00:05:40.904Z,84.71
2023-01-09T00:08:07.439Z,87.31
2023-01-09T00:10:34.070Z,87.85
2023-01-09T00:13:00.549Z,89.19
2023-01-09T00:15:27.248Z,90.33
2023-01-09T00:17:53.741Z,91.43
2023-01-09T00:20:20.189Z,91.55
2023-01-09T00:22:46.645Z,92.27
2023-01-09T00:25:13.218Z,92.73
2023-01-09T00:27:39.799Z,93.05
2023-01-09T00:30:06.859Z,92.40
2023-01-09T00:32:33.389Z,92.76
2023-01-09T00:34:59.837Z,93.68
2023-01-09T00:37:26.314Z,92.52
2023-01-09T00:39:52.764Z,93.30
2023-01-09T00:42:28.033Z,93.13
2023-01-09T00:45:01.327Z,93.83
2023-01-09T00:47:33.017Z,93.39
2023-01-09T00:50:06.459Z,93.71
2023-01-09T00:52:37.026Z,85.93
2023-01-09T00:55:04.942Z,87.77
2023-01-09T00:57:31.423Z,89.62
2023-01-09T00:59:59.497Z,95.21
2023-01-09T01:02:26.486Z,97.95
2023-01-09T01:04:53.027Z,98.40
2023-01-09T01:07:19.595Z,96.80
2023-01-09T01:09:46.063Z,97.15
2023-01-09T01:12:12.544Z,96.29
2023-01-09T01:14:39.652Z,92.45
2023-01-09T01:17:07.706Z,89.66
2023-01-09T01:19:35.905Z,90.37
2023-01-09T01:22:02.948Z,88.81
2023-01-09T01:24:29.408Z,87.88
2023-01-09T01:26:56.062Z,88.33
2023-01-09T01:29:22.633Z,88.53
2023-01-09T01:31:49.135Z,88.19
2023-01-09T01:34:15.561Z,88.90
2023-01-09T01:36:42.008Z,87.08
2023-01-09T01:39:08.447Z,87.57
2023-01-09T01:41:34.955Z,88.00
2023-01-09T01:44:04.893Z,91.54
2023-01-09T01:46:33.940Z,92.16
2023-01-09T01:49:08.586Z,91.43
2023-01-09T01:51:41.189Z,89.99
2023-01-09T01:54:15.778Z,88.90
2023-01-09T01:56:46.781Z,87.97
2023-01-09T01:59:27.810Z,87.56
2023-01-09T02:02:00.444Z,87.66
2023-01-09T02:04:29.986Z,88.36
2023-01-09T02:06:56.804Z,87.74
2023-01-09T02:09:23.921Z,89.02
2023-01-09T02:11:52.611Z,86.93
2023-01-09T02:14:24.232Z,87.12
2023-01-09T02:17:19.325Z,86.92
2023-01-09T02:20:08.724Z,86.83
2023-01-09T02:23:05.811Z,86.30
2023-01-09T02:26:11.549Z,86.13
2023-01-09T02:28:54.981Z,85.97
2023-01-09T02:31:38.595Z,83.24
2023-01-09T02:34:17.956Z,81.20
2023-01-09T02:36:55.616Z,77.69
2023-01-09T02:39:33.009Z,76.40
2023-01-09T02:42:08.664Z,76.44
2023-01-09T02:44:35.396Z,75.49
2023-01-09T02:47:24.758Z,73.44
2023-01-09T02:49:58.427Z,72.52
2023-01-09T02:53:02.755Z,71.23
2023-01-09T02:55:51.385Z,72.03
2023-01-09T02:58:47.681Z,72.67
2023-01-09T03:01:41.349Z,72.11
2023-01-09T03:04:18.889Z,71.09
2023-01-09T03:07:00.547Z,70.45
2023-01-09T03:09:32.991Z,69.91
2023-01-09T03:12:10.651Z,70.08
2023-01-09T03:14:44.115Z,70.91
2023-01-09T03:17:17.135Z,71.69
2023-01-09T03:19:46.475Z,71.98
2023-01-09T03:22:12.979Z,72.77
2023-01-09T03:24:39.425Z,72.59
2023-01-09T03:27:09.441Z,71.59
2023-01-09T03:29:35.989Z,70.46
2023-01-09T03:32:02.492Z,69.01
2023-01-09T03:34:29.186Z,67.48
2023-01-09T03:36:55.641Z,68.37
2023-01-09T03:39:22.143Z,67.46
2023-01-09T03:41:48.614Z,66.24
2023-01-09T03:44:15.092Z,66.38
2023-01-09T03:46:41.569Z,65.78
2023-01-09T03:49:08.125Z,66.87
2023-01-09T03:51:34.600Z,68.65
2023-01-09T03:54:01.067Z,70.31
2023-01-09T03:56:27.525Z,71.54
2023-01-09T03:58:54.016Z,70.69
2023-01-09T04:01:20.640Z,70.64
2023-01-09T04:03:47.211Z,70.51
2023-01-09T04:06:13.731Z,70.79
2023-01-09T04:08:40.196Z,68.91
2023-01-09T04:11:06.669Z,70.87
2023-01-09T04:13:33.156Z,71.06
2023-01-09T04:15:59.660Z,72.56
2023-01-09T04:18:26.225Z,71.74
2023-01-09T04:20:55.155Z,70.86
2023-01-09T04:23:21.827Z,69.61
2023-01-09T04:25:48.293Z,70.38
2023-01-09T04:28:14.904Z,70.80
2023-01-09T04:30:41.488Z,71.24
2023-01-09T04:33:08.052Z,68.79
2023-01-09T04:35:34.571Z,65.35
2023-01-09T04:38:01.055Z,64.23
2023-01-09T04:40:27.548Z,63.85
2023-01-09T04:42:54.000Z,63.40
2023-01-09T04:45:20.464Z,61.34
2023-01-09T04:47:46.941Z,59.86
2023-01-09T04:50:13.430Z,59.36
2023-01-09T04:52:40.232Z,55.30
2023-01-09T04:55:08.212Z,53.45
2023-01-09T04:57:35.955Z,54.91
2023-01-09T05:00:04.918Z,56.02
2023-01-09T05:02:31.368Z,54.34
2023-01-09T05:04:57.826Z,55.20
2023-01-09T05:07:24.352Z,56.12
2023-01-09T05:09:50.827Z,58.51
2023-01-09T05:12:17.337Z,57.82
2023-01-09T05:14:43.816Z,58.84
2023-01-09T05:17:10.312Z,58.06
2023-01-09T05:19:36.784Z,55.26
2023-01-09T05:22:03.255Z,58.16
2023-01-09T05:24:29.723Z,59.28
2023-01-09T05:26:56.197Z,59.43
2023-01-09T05:29:22.725Z,59.53
2023-01-09T05:31:49.266Z,55.19
2023-01-09T05:34:15.760Z,54.27
2023-01-09T05:36:42.338Z,53.62
2023-01-09T05:39:08.780Z,50.98
2023-01-09T05:41:35.246Z,50.98
2023-01-09T05:44:01.717Z,50.32
2023-01-09T05:46:28.174Z,51.16
2023-01-09T05:48:54.664Z,51.44
2023-01-09T05:51:21.138Z,52.28
2023-01-09T05:53:47.668Z,53.90
2023-01-09T05:56:14.294Z,55.55
2023-01-09T05:58:40.868Z,56.70
2023-01-09T06:01:08.049Z,58.71
2023-01-09T06:03:34.534Z,59.49
2023-01-09T06:06:01.002Z,60.31
2023-01-09T06:08:27.460Z,60.14
2023-01-09T06:10:53.930Z,61.09
2023-01-09T06:13:20.479Z,59.20
2023-01-09T06:15:48.499Z,60.31
2023-01-09T06:18:15.168Z,60.58
2023-01-09T06:20:43.759Z,60.63
2023-01-09T06:23:12.156Z,60.95
2023-01-09T06:25:39.797Z,62.28
2023-01-09T06:28:06.249Z,63.23
2023-01-09T06:30:32.687Z,64.89
2023-01-09T06:32:59.139Z,66.38
2023-01-09T06:35:25.608Z,67.01
2023-01-09T06:37:52.101Z,66.03
2023-01-09T06:40:18.636Z,65.74
2023-01-09T06:42:46.003Z,65.99
2023-01-09T06:45:13.838Z,65.03
2023-01-09T06:47:40.759Z,65.10
2023-01-09T06:50:08.776Z,65.13
2023-01-09T06:52:36.462Z,64.84
2023-01-09T06:55:04.183Z,63.73
2023-01-09T06:57:30.770Z,63.08
2023-01-09T06:59:57.306Z,62.56
2023-01-09T07:02:23.865Z,61.70
2023-01-09T07:04:50.360Z,60.97
2023-01-09T07:07:16.965Z,59.92
2023-01-09T07:09:43.916Z,60.08
2023-01-09T07:12:10.421Z,58.97
2023-01-09T07:14:36.954Z,59.30
2023-01-09T07:17:03.520Z,58.74
2023-01-09T07:19:29.983Z,57.20
2023-01-09T07:21:56.480Z,57.24
2023-01-09T07:24:23.289Z,57.07
2023-01-09T07:26:49.748Z,57.58
2023-01-09T07:29:16.210Z,56.96
2023-01-09T07:31:42.701Z,57.73
2023-01-09T07:34:09.234Z,57.15
2023-01-09T07:36:35.706Z,58.45
2023-01-09T07:39:02.183Z,58.89
2023-01-09T07:41:28.664Z,59.66
2023-01-09T07:43:56.939Z,59.23
2023-01-09T07:46:23.415Z,58.81
2023-01-09T07:48:49.908Z,58.34
2023-01-09T07:51:16.362Z,58.34
2023-01-09T07:53:42.811Z,58.08
2023-01-09T07:56:09.309Z,58.04
2023-01-09T07:58:35.773Z,57.82
2023-01-09T08:01:02.286Z,57.83
2023-01-09T08:03:28.802Z,57.46
2023-01-09T08:05:55.256Z,56.85
2023-01-09T08:08:21.708Z,56.12
2023-01-09T08:10:48.190Z,55.18
2023-01-09T08:13:14.638Z,54.67
2023-01-09T08:15:41.133Z,56.06
2023-01-09T08:18:07.716Z,56.11
2023-01-09T08:20:34.174Z,56.73
2023-01-09T08:23:00.644Z,56.17
2023-01-09T08:25:27.134Z,57.92
2023-01-09T08:27:53.696Z,58.70
2023-01-09T08:30:20.395Z,56.88
2023-01-09T08:32:52.940Z,55.95
2023-01-09T08:35:20.495Z,56.11
2023-01-09T08:37:48.251Z,57.03
2023-01-09T08:40:17.012Z,58.24
2023-01-09T08:42:43.809Z,59.42
2023-01-09T08:45:12.222Z,60.78
2023-01-09T08:47:38.799Z,60.91
2023-01-09T08:50:06.082Z,62.14
2023-01-09T08:52:32.535Z,61.47
2023-01-09T08:54:59.208Z,61.57
2023-01-09T08:57:25.737Z,60.83
2023-01-09T08:59:52.248Z,60.75
2023-01-09T09:02:18.803Z,60.15
2023-01-09T09:04:45.317Z,61.89
2023-01-09T09:07:11.797Z,61.37
2023-01-09T09:09:38.265Z,61.26
2023-01-09T09:12:05.257Z,60.15
2023-01-09T09:14:31.724Z,58.46
2023-01-09T09:16:58.343Z,58.30
2023-01-09T09:19:24.847Z,58.95
2023-01-09T09:21:51.364Z,59.07
2023-01-09T09:24:17.869Z,59.10
2023-01-09T09:26:44.776Z,58.97
2023-01-09T09:29:12.050Z,59.54
2023-01-09T09:31:39.078Z,60.30
2023-01-09T09:34:07.600Z,60.04
2023-01-09T09:36:34.223Z,60.10
2023-01-09T09:39:01.228Z,62.54
2023-01-09T09:41:46.997Z,66.44
2023-01-09T09:44:43.849Z,67.39
2023-01-09T09:47:36.433Z,65.45
2023-01-09T09:50:25.835Z,67.72
2023-01-09T09:53:06.832Z,70.52
2023-01-09T09:55:37.785Z,74.12
2023-01-09T09:58:21.785Z,75.43
2023-01-09T10:00:50.648Z,76.94
2023-01-09T10:03:52.292Z,77.52
2023-01-09T10:06:31.261Z,79.88
2023-01-09T10:09:09.547Z,83.33
2023-01-09T10:12:12.344Z,85.26
2023-01-09T10:14:39.766Z,86.15
2023-01-09T10:17:15.377Z,88.13
2023-01-09T10:19:58.342Z,86.58
2023-01-09T10:22:49.293Z,85.78
2023-01-09T10:25:21.249Z,86.19
2023-01-09T10:28:02.466Z,86.66
2023-01-09T10:30:43.947Z,86.03
2023-01-09T10:33:22.204Z,83.80
2023-01-09T10:36:06.896Z,83.11
2023-01-09T10:38:41.222Z,81.35
2023-01-09T10:41:19.967Z,81.22
2023-01-09T10:43:55.462Z,82.11
2023-01-09T10:46:38.654Z,82.45
2023-01-09T10:49:12.495Z,83.81
2023-01-09T10:51:49.976Z,82.34
2023-01-09T10:54:20.722Z,82.21
2023-01-09T10:57:12.961Z,81.31
2023-01-09T10:59:41.442Z,81.46
2023-01-09T11:02:31.800Z,81.92
2023-01-09T11:04:58.312Z,82.72
2023-01-09T11:07:30.400Z,84.14
2023-01-09T11:10:00.983Z,82.29
2023-01-09T11:12:33.200Z,82.97
2023-01-09T11:15:18.056Z,82.27
2023-01-09T11:17:45.511Z,82.58
2023-01-09T11:20:22.843Z,82.65
2023-01-09T11:22:51.810Z,82.07
2023-01-09T11:25:20.804Z,80.69
2023-01-09T11:28:02.411Z,80.13
2023-01-09T11:30:30.344Z,79.63
2023-01-09T11:32:58.946Z,78.42
2023-01-09T11:35:34.756Z,80.48
2023-01-09T11:38:16.188Z,81.62
2023-01-09T11:41:15.922Z,83.03
2023-01-09T11:43:47.412Z,81.42
2023-01-09T11:46:30.074Z,80.52
2023-01-09T11:48:58.685Z,80.20
2023-01-09T11:51:34.341Z,79.02
2023-01-09T11:54:10.205Z,78.48
2023-01-09T11:56:36.985Z,78.91
2023-01-09T11:59:10.958Z,76.96
2023-01-09T12:02:12.040Z,76.53
2023-01-09T12:04:51.226Z,75.49
2023-01-09T12:07:20.376Z,75.64
2023-01-09T12:10:10.657Z,74.88
2023-01-09T12:12:57.347Z,75.51
2023-01-09T12:15:38.469Z,75.41
2023-01-09T12:18:21.692Z,76.25
2023-01-09T12:21:26.683Z,75.43
2023-01-09T12:24:15.921Z,77.75
2023-01-09T12:27:06.627Z,78.56
2023-01-09T12:30:13.379Z,79.60
2023-01-09T12:32:45.484Z,81.08
2023-01-09T12:35:46.125Z,81.38
2023-01-09T12:38:35.257Z,82.95
2023-01-09T12:41:28.831Z,82.93
2023-01-09T12:44:35.701Z,82.35
2023-01-09T12:47:20.761Z,82.19
2023-01-09T12:50:18.561Z,82.75
2023-01-09T12:53:30.290Z,81.31
2023-01-09T12:56:07.504Z,80.96
2023-01-09T12:58:53.567Z,81.33
2023-01-09T13:01:29.167Z,82.06
2023-01-09T13:04:19.785Z,80.59
2023-01-09T13:06:57.121Z,79.15
2023-01-09T13:09:44.256Z,75.63
2023-01-09T13:12:14.173Z,76.59
2023-01-09T13:14:52.477Z,77.40
2023-01-09T13:17:36.695Z,76.65
2023-01-09T13:20:17.778Z,74.74
2023-01-09T13:22:45.329Z,78.02
2023-01-09T13:25:30.191Z,77.06
2023-01-09T13:28:05.589Z,78.64
2023-01-09T13:30:58.814Z,80.24
2023-01-09T13:33:38.885Z,80.50
2023-01-09T13:36:06.140Z,82.70
2023-01-09T13:38:38.235Z,85.38
2023-01-09T13:41:13.546Z,92.13
2023-01-09T13:43:55.791Z,95.33
2023-01-09T13:46:23.760Z,96.66
2023-01-09T13:48:50.256Z,100.00
2023-01-09T13:51:42.019Z,99.99
2023-01-09T13:54:10.361Z,99.35
2023-01-09T13:57:14.346Z,99.16
2023-01-09T13:59:40.796Z,99.35
2023-01-09T14:02:36.209Z,97.83
2023-01-09T14:05:09.640Z,96.01
2023-01-09T14:07:39.125Z,95.45
2023-01-09T14:10:26.488Z,94.74
2023-01-09T14:12:56.729Z,92.72
2023-01-09T14:15:36.497Z,89.21
2023-01-09T14:18:24.627Z,90.67
2023-01-09T14:21:00.389Z,89.52
2023-01-09T14:23:51.526Z,90.97
2023-01-09T14:26:47.213Z,91.09
2023-01-09T14:29:29.005Z,91.17
2023-01-09T14:32:23.258Z,88.44
2023-01-09T14:34:59.785Z,85.57
2023-01-09T14:37:29.073Z,80.71
2023-01-09T14:39:57.699Z,82.13
2023-01-09T14:42:29.159Z,80.13
2023-01-09T14:45:06.165Z,79.68
2023-01-09T14:47:56.372Z,77.29
2023-01-09T14:50:59.929Z,77.62
2023-01-09T14:53:33.240Z,78.23
2023-01-09T14:56:04.005Z,76.58
2023-01-09T14:58:33.505Z,75.33
2023-01-09T15:01:21.369Z,75.21
2023-01-09T15:03:52.884Z,75.58
2023-01-09T15:06:23.402Z,75.92
2023-01-09T15:08:58.330Z,76.94
2023-01-09T15:11:26.948Z,73.99
2023-01-09T15:13:55.853Z,78.15
2023-01-09T15:16:25.581Z,77.61
2023-01-09T15:18:59.763Z,78.39
2023-01-09T15:21:29.138Z,79.47
2023-01-09T15:23:55.653Z,79.32
2023-01-09T15:26:28.474Z,81.62
2023-01-09T15:29:09.230Z,80.88
2023-01-09T15:31:41.828Z,79.21
2023-01-09T15:34:19.792Z,79.64
2023-01-09T15:36:46.822Z,79.79
2023-01-09T15:39:22.628Z,78.15
2023-01-09T15:41:49.175Z,78.06
2023-01-09T15:44:26.060Z,78.04
2023-01-09T15:46:59.230Z,76.05
2023-01-09T15:49:26.336Z,75.57
2023-01-09T15:51:54.031Z,74.85
2023-01-09T15:54:29.714Z,74.52
2023-01-09T15:57:27.505Z,75.61
2023-01-09T15:59:55.224Z,78.59
2023-01-09T16:02:24.354Z,79.86
2023-01-09T16:04:55.448Z,80.04
2023-01-09T16:07:21.934Z,80.79
2023-01-09T16:09:50.323Z,81.65
2023-01-09T16:12:27.199Z,83.65
2023-01-09T16:15:00.919Z,83.24
2023-01-09T16:17:27.787Z,83.12
2023-01-09T16:19:59.061Z,83.78
2023-01-09T16:22:25.557Z,83.41
2023-01-09T16:24:53.953Z,82.52
2023-01-09T16:27:31.964Z,81.31
2023-01-09T16:30:01.799Z,79.71
2023-01-09T16:32:34.769Z,79.29
2023-01-09T16:35:07.347Z,78.06
2023-01-09T16:37:34.406Z,77.10
2023-01-09T16:40:04.399Z,76.34
2023-01-09T16:42:32.167Z,77.65
2023-01-09T16:44:58.635Z,76.15
2023-01-09T16:47:25.166Z,74.74
2023-01-09T16:49:51.596Z,74.41
2023-01-09T16:52:18.074Z,74.14
2023-01-09T16:54:44.649Z,76.49
2023-01-09T16:57:16.908Z,75.76
2023-01-09T16:59:43.612Z,76.67
2023-01-09T17:02:20.369Z,76.36
2023-01-09T17:04:46.836Z,74.73
2023-01-09T17:07:15.662Z,73.25
2023-01-09T17:09:42.805Z,73.23
2023-01-09T17:12:17.607Z,73.56
2023-01-09T17:14:44.062Z,74.20
2023-01-09T17:17:11.314Z,73.81
2023-01-09T17:19:37.924Z,73.61
2023-01-09T17:22:05.009Z,72.49
2023-01-09T17:24:31.558Z,73.77
2023-01-09T17:27:00.515Z,74.54
2023-01-09T17:29:28.672Z,76.08
2023-01-09T17:31:57.577Z,74.47
2023-01-09T17:34:24.167Z,74.73
2023-01-09T17:36:50.679Z,76.21
2023-01-09T17:39:17.586Z,75.62
2023-01-09T17:41:44.648Z,78.50
2023-01-09T17:44:11.782Z,80.36
2023-01-09T17:46:41.207Z,80.15
2023-01-09T17:49:15.215Z,79.11
2023-01-09T17:51:41.700Z,79.15
2023-01-09T17:54:08.304Z,78.70
2023-01-09T17:56:39.241Z,78.15
2023-01-09T17:59:05.748Z,78.52
2023-01-09T18:01:32.265Z,78.94
2023-01-09T18:03:58.795Z,79.21
2023-01-09T18:06:25.240Z,78.97
2023-01-09T18:08:51.974Z,79.11
2023-01-09T18:11:20.960Z,80.68
2023-01-09T18:13:49.992Z,80.47
2023-01-09T18:16:21.590Z,82.92
2023-01-09T18:18:48.219Z,82.90
2023-01-09T18:21:21.681Z,81.82
2023-01-09T18:23:50.046Z,79.34
2023-01-09T18:26:17.755Z,79.96
2023-01-09T18:28:44.202Z,80.14
2023-01-09T18:31:10.645Z,79.56
2023-01-09T18:33:37.113Z,78.97
2023-01-09T18:36:08.909Z,79.03
2023-01-09T18:38:35.879Z,77.11
2023-01-09T18:41:04.500Z,75.92
2023-01-09T18:43:31.641Z,76.06
2023-01-09T18:45:58.208Z,76.09
2023-01-09T18:48:24.732Z,75.65
2023-01-09T18:50:51.203Z,76.84
2023-01-09T18:53:17.651Z,77.11
2023-01-09T18:55:44.123Z,76.63
2023-01-09T18:58:10.631Z,76.82
2023-01-09T19:00:37.086Z,78.38
2023-01-09T19:03:03.583Z,78.27
2023-01-09T19:05:32.253Z,80.22
2023-01-09T19:07:58.715Z,80.58
2023-01-09T19:10:25.183Z,81.97
2023-01-09T19:12:51.673Z,81.72
2023-01-09T19:15:18.187Z,82.73
2023-01-09T19:17:44.754Z,81.00
2023-01-09T19:20:11.699Z,83.73
2023-01-09T19:22:38.209Z,83.58
2023-01-09T19:25:05.125Z,83.11
2023-01-09T19:27:31.600Z,81.91
2023-01-09T19:29:58.071Z,82.15
2023-01-09T19:32:24.522Z,84.25
2023-01-09T19:34:50.989Z,82.82
2023-01-09T19:37:17.489Z,81.31
2023-01-09T19:39:44.833Z,79.80
2023-01-09T19:42:11.531Z,80.73
2023-01-09T19:44:38.019Z,79.83
2023-01-09T19:47:04.560Z,80.09
2023-01-09T19:49:31.300Z,80.07
2023-01-09T19:51:57.909Z,81.43
2023-01-09T19:54:24.405Z,82.08
2023-01-09T19:56:50.871Z,81.44
2023-01-09T19:59:17.355Z,82.65
2023-01-09T20:01:44.098Z,83.87
2023-01-09T20:04:12.001Z,82.58
2023-01-09T20:06:42.033Z,82.24
2023-01-09T20:09:08.606Z,83.88
2023-01-09T20:11:35.078Z,84.76
2023-01-09T20:14:01.591Z,86.02
2023-01-09T20:16:30.461Z,86.81
2023-01-09T20:18:59.950Z,86.13
2023-01-09T20:21:28.269Z,86.98
2023-01-09T20:23:58.157Z,88.45
2023-01-09T20:26:25.201Z,89.60
2023-01-09T20:28:52.707Z,89.33
2023-01-09T20:31:21.360Z,88.91
2023-01-09T20:33:49.340Z,89.69
2023-01-09T20:36:16.016Z,90.02
2023-01-09T20:38:43.225Z,89.34
2023-01-09T20:41:15.832Z,88.98
2023-01-09T20:43:42.328Z,89.31
2023-01-09T20:46:08.877Z,88.95
2023-01-09T20:48:35.363Z,89.16
2023-01-09T20:51:05.939Z,87.56
2023-01-09T20:53:32.762Z,87.25
2023-01-09T20:56:04.395Z,87.09
2023-01-09T20:58:30.875Z,87.01
2023-01-09T21:00:57.491Z,87.83
2023-01-09T21:03:24.025Z,88.61
2023-01-09T21:05:50.545Z,88.61
2023-01-09T21:08:17.028Z,89.09
2023-01-09T21:10:43.559Z,89.20
2023-01-09T21:13:10.041Z,89.08
2023-01-09T21:15:37.790Z,88.53
2023-01-09T21:18:04.337Z,88.06
2023-01-09T21:20:30.816Z,87.42
2023-01-09T21:22:57.311Z,87.38
2023-01-09T21:25:23.772Z,86.84
2023-01-09T21:27:50.251Z,86.59
2023-01-09T21:30:16.817Z,85.48
2023-01-09T21:32:43.280Z,84.83
2023-01-09T21:35:09.758Z,86.05
2023-01-09T21:37:37.099Z,87.06
2023-01-09T21:40:05.138Z,86.86
2023-01-09T21:42:31.696Z,85.78
2023-01-09T21:44:58.156Z,85.63
2023-01-09T21:47:24.607Z,84.44
2023-01-09T21:49:51.117Z,81.59
2023-01-09T21:52:17.576Z,81.93
2023-01-09T21:54:44.504Z,82.37
2023-01-09T21:57:11.002Z,81.36
2023-01-09T21:59:37.485Z,80.62
2023-01-09T22:02:04.144Z,78.20
2023-01-09T22:04:30.664Z,78.50
2023-01-09T22:06:57.147Z,77.50
2023-01-09T22:09:23.611Z,76.07
2023-01-09T22:11:50.189Z,75.22
2023-01-09T22:14:18.534Z,75.70
2023-01-09T22:16:46.083Z,75.20
2023-01-09T22:19:14.504Z,74.58
2023-01-09T22:21:40.972Z,73.68
2023-01-09T22:24:07.570Z,73.23
2023-01-09T22:26:34.423Z,71.63
2023-01-09T22:29:00.880Z,71.33
2023-01-09T22:31:27.495Z,70.79
2023-01-09T22:33:56.988Z,71.20
2023-01-09T22:36:25.117Z,71.27
2023-01-09T22:38:55.979Z,71.75
2023-01-09T22:41:24.340Z,72.80
2023-01-09T22:43:50.807Z,72.70
2023-01-09T22:46:17.486Z,75.93
2023-01-09T22:48:44.544Z,73.51
2023-01-09T22:51:20.261Z,70.79
2023-01-09T22:53:46.745Z,72.75
2023-01-09T22:56:16.483Z,72.81
2023-01-09T22:58:43.451Z,74.92
2023-01-09T23:01:11.143Z,74.08
2023-01-09T23:03:38.342Z,76.73
2023-01-09T23:06:06.120Z,78.13
2023-01-09T23:08:34.145Z,77.37
2023-01-09T23:11:01.894Z,79.03
2023-01-09T23:13:28.458Z,80.49
2023-01-09T23:15:55.730Z,79.02
2023-01-09T23:18:23.167Z,80.14
2023-01-09T23:20:58.216Z,80.04
2023-01-09T23:23:26.408Z,80.28
2023-01-09T23:25:58.842Z,83.50
2023-01-09T23:28:26.727Z,86.17
2023-01-09T23:30:53.354Z,87.35
2023-01-09T23:33:19.865Z,89.05
2023-01-09T23:35:47.364Z,89.64
2023-01-09T23:38:14.262Z,89.96
2023-01-09T23:40:41.646Z,89.73
2023-01-09T23:43:13.538Z,89.44
2023-01-09T23:45:43.160Z,87.59
2023-01-09T23:48:12.695Z,86.18
2023-01-09T23:50:42.874Z,84.52
2023-01-09T23:53:09.461Z,83.77
2023-01-09T23:55:36.557Z,83.65
2023-01-09T23:58:03.106Z,83.29
